Time;durP1;ratioP1;P1;durP2;ratioP2;P2;SDS_P1;SDS_P2;PMS_P1;PMS_P2;Temp;Humidity;BMP_temperature;BMP_pressure;BME280_temperature;BME280_humidity;BME280_pressure;Samples;Min_cycle;Max_cycle;Signal;HPM_P1;HPM_P2
2023/07/17 00:00:22;;;;;;;9.93;5.55;;;;;;;20.18;52.09;98801.47;4996966;28;20033;-81
2023/07/17 00:02:48;;;;;;;11.13;5.75;;;;;;;20.31;52.57;98824.25;5015004;28;20073;-81
2023/07/17 00:05:13;;;;;;;9.60;5.72;;;;;;;20.13;52.27;98793.50;5014744;28;20018;-81
2023/07/17 00:07:40;;;;;;;8.85;5.60;;;;;;;20.13;52.71;98817.09;5014539;28;20029;-81
2023/07/17 00:10:07;;;;;;;10.05;6.03;;;;;;;19.83;54.77;98828.72;5013441;28;20029;-81
2023/07/17 00:12:33;;;;;;;8.65;5.00;;;;;;;19.74;53.81;98808.91;4997216;28;20049;-81
2023/07/17 00:14:58;;;;;;;13.50;6.28;;;;;;;19.96;53.58;98817.00;4996828;28;20029;-81
2023/07/17 00:17:24;;;;;;;9.45;6.55;;;;;;;20.19;52.94;98826.69;4996530;28;20029;-81
2023/07/17 00:19:58;;;;;;;9.48;5.53;;;;;;;20.14;53.12;98810.53;5013144;28;20061;-81
2023/07/17 00:22:24;;;;;;;8.48;5.55;;;;;;;20.24;53.23;98826.59;5014488;28;20030;-81
2023/07/17 00:24:51;;;;;;;13.05;5.63;;;;;;;20.00;53.35;98810.66;5013187;28;20041;-81
2023/07/17 00:27:17;;;;;;;11.68;5.57;;;;;;;20.20;52.85;98822.88;5014263;28;20065;-81
2023/07/17 00:29:44;;;;;;;7.40;5.53;;;;;;;20.24;53.04;98829.31;4996458;28;20580;-80
2023/07/17 00:32:11;;;;;;;6.40;5.60;;;;;;;20.21;53.18;98829.09;5012837;28;20037;-81
2023/07/17 00:34:37;;;;;;;7.57;5.80;;;;;;;20.05;53.31;98826.78;5014399;28;20057;-81
2023/07/17 00:37:02;;;;;;;8.18;5.38;;;;;;;20.01;53.58;98825.78;4996370;28;20119;-80
2023/07/17 00:39:28;;;;;;;7.30;5.55;;;;;;;20.09;53.17;98829.69;5012108;28;20045;-81
2023/07/17 00:41:53;;;;;;;7.72;5.22;;;;;;;20.09;53.04;98825.03;5013091;28;20026;-81
2023/07/17 00:44:19;;;;;;;8.15;5.55;;;;;;;19.94;53.51;98825.44;5012812;28;20060;-81
2023/07/17 00:46:46;;;;;;;7.72;5.57;;;;;;;19.94;53.17;98825.44;5012703;28;20026;-80
2023/07/17 00:49:12;;;;;;;7.38;5.57;;;;;;;19.99;53.27;98822.59;5013942;28;20029;-81
2023/07/17 00:51:39;;;;;;;11.38;5.72;;;;;;;20.03;53.44;98829.00;5012593;28;20026;-81
2023/07/17 00:54:06;;;;;;;9.63;6.03;;;;;;;19.99;53.35;98832.63;5012718;28;20036;-80
2023/07/17 00:56:32;;;;;;;8.10;5.85;;;;;;;19.89;53.51;98817.44;5012232;28;20037;-81
2023/07/17 00:58:58;;;;;;;7.32;5.75;;;;;;;19.82;54.01;98818.97;5012064;28;20044;-81
2023/07/17 01:01:23;;;;;;;7.32;5.15;;;;;;;19.85;53.10;98827.31;5012473;28;20034;-80
2023/07/17 01:03:54;;;;;;;10.30;6.22;;;;;;;19.81;53.47;98817.41;4996257;28;20394;-81
2023/07/17 01:06:19;;;;;;;7.53;5.65;;;;;;;19.91;53.32;98836.91;4996184;28;20030;-81
2023/07/17 01:08:45;;;;;;;6.72;5.05;;;;;;;19.79;53.40;98812.25;5013388;28;20076;-81
2023/07/17 01:11:10;;;;;;;7.38;5.65;;;;;;;20.01;53.54;98835.81;5014086;28;20074;-81
2023/07/17 01:13:46;;;;;;;6.05;5.35;;;;;;;19.79;53.58;98817.69;4995827;28;20033;-80
2023/07/17 01:16:13;;;;;;;8.25;6.22;;;;;;;19.85;53.62;98832.72;5013561;28;20123;-81
2023/07/17 01:18:38;;;;;;;7.70;5.45;;;;;;;19.83;53.55;98840.31;5011978;28;20377;-80
2023/07/17 01:21:07;;;;;;;9.45;5.72;;;;;;;19.87;53.79;98840.53;5012094;28;20038;-81
2023/07/17 01:23:33;;;;;;;8.43;5.30;;;;;;;19.75;53.66;98835.66;5012047;28;20125;-81
2023/07/17 01:25:59;;;;;;;7.00;5.43;;;;;;;19.75;53.65;98842.97;4995486;28;20041;-81
2023/07/17 01:28:25;;;;;;;6.80;5.25;;;;;;;19.80;53.91;98856.41;5011662;28;20355;-81
2023/07/17 01:30:51;;;;;;;9.68;5.55;;;;;;;19.58;54.20;98846.38;5013308;28;20022;-81
2023/07/17 01:33:16;;;;;;;7.32;6.00;;;;;;;19.65;54.50;98856.78;5011978;28;20072;-81
2023/07/17 01:35:42;;;;;;;8.02;5.68;;;;;;;19.60;53.99;98837.94;5012786;28;20448;-81
2023/07/17 01:38:08;;;;;;;7.82;6.13;;;;;;;19.62;54.07;98835.72;5011693;28;20026;-80
2023/07/17 01:40:33;;;;;;;7.22;5.25;;;;;;;19.68;54.17;98853.47;5011182;28;20121;-81
2023/07/17 01:42:59;;;;;;;7.13;5.60;;;;;;;19.54;54.29;98852.72;4995005;28;20137;-81
2023/07/17 01:45:24;;;;;;;7.10;5.93;;;;;;;19.65;54.71;98854.06;5012952;28;20045;-81
2023/07/17 01:47:49;;;;;;;8.95;5.63;;;;;;;19.58;54.31;98842.88;5012724;28;20037;-81
2023/07/17 01:50:15;;;;;;;8.05;6.05;;;;;;;19.53;54.51;98848.41;4995408;28;20034;-80
2023/07/17 01:52:40;;;;;;;8.45;5.60;;;;;;;19.51;54.46;98840.56;5011624;28;20057;-80
2023/07/17 01:55:06;;;;;;;12.70;5.90;;;;;;;19.49;54.49;98842.78;5011429;28;20031;-81
2023/07/17 01:57:32;;;;;;;7.57;6.05;;;;;;;19.54;54.38;98844.59;5011132;28;20065;-80
2023/07/17 01:59:57;;;;;;;7.57;5.80;;;;;;;19.49;54.40;98834.66;5012579;28;20765;-80
2023/07/17 02:02:23;;;;;;;9.35;5.97;;;;;;;19.39;54.73;98832.22;4994789;28;20030;-80
2023/07/17 02:04:48;;;;;;;8.73;5.25;;;;;;;19.28;54.73;98828.09;5012584;28;20084;-81
2023/07/17 02:07:13;;;;;;;9.77;5.90;;;;;;;19.28;54.30;98828.91;5010216;28;20053;-81
2023/07/17 02:09:39;;;;;;;7.90;5.97;;;;;;;19.27;54.92;98846.25;4994628;28;20049;-80
2023/07/17 02:12:04;;;;;;;7.90;5.93;;;;;;;19.14;54.02;98822.72;4994650;28;20116;-81
2023/07/17 02:14:30;;;;;;;9.43;6.15;;;;;;;19.26;54.98;98841.91;5011263;28;20034;-80
2023/07/17 02:16:55;;;;;;;10.70;6.60;;;;;;;19.32;54.75;98851.56;5010722;28;20109;-80
2023/07/17 02:19:21;;;;;;;8.70;5.85;;;;;;;19.24;54.62;98846.84;4994678;28;20530;-80
2023/07/17 02:21:46;;;;;;;8.63;5.88;;;;;;;19.26;54.82;98855.44;5012295;28;20462;-81
2023/07/17 02:24:11;;;;;;;8.77;6.85;;;;;;;19.27;54.18;98857.06;5011054;28;20034;-80
2023/07/17 02:26:37;;;;;;;8.20;5.60;;;;;;;19.28;54.52;98850.56;5012378;28;20113;-80
2023/07/17 02:29:05;;;;;;;9.52;5.47;;;;;;;19.14;54.71;98841.66;5012199;28;20051;-80
2023/07/17 02:31:30;;;;;;;13.65;6.60;;;;;;;19.08;54.61;98859.13;5012317;28;20034;-81
2023/07/17 02:33:56;;;;;;;7.97;5.80;;;;;;;19.01;54.55;98839.78;5012045;28;20034;-80
2023/07/17 02:36:21;;;;;;;7.05;5.72;;;;;;;19.02;54.65;98838.69;5010801;28;20041;-81
2023/07/17 02:38:47;;;;;;;9.02;5.93;;;;;;;19.05;54.73;98845.38;5010180;28;20030;-80
2023/07/17 02:41:15;;;;;;;7.00;6.03;;;;;;;19.07;54.32;98843.97;5011982;28;20037;-80
2023/07/17 02:43:40;;;;;;;8.88;5.78;;;;;;;19.01;54.60;98853.31;5027028;28;20470;-81
2023/07/17 02:46:06;;;;;;;8.45;6.38;;;;;;;18.93;54.56;98848.63;5010739;28;20034;-81
2023/07/17 02:48:31;;;;;;;9.45;5.90;;;;;;;18.97;54.51;98854.22;5010334;28;20029;-80
2023/07/17 02:50:57;;;;;;;10.48;6.60;;;;;;;18.91;54.99;98855.44;4994263;28;20521;-80
2023/07/17 02:53:22;;;;;;;7.93;5.57;;;;;;;19.00;54.43;98859.03;4994100;28;20029;-80
2023/07/17 02:55:47;;;;;;;9.30;6.35;;;;;;;18.92;54.57;98847.00;5010572;28;20045;-80
2023/07/17 02:58:19;;;;;;;10.27;6.05;;;;;;;18.93;54.58;98859.44;5010258;28;20049;-80
2023/07/17 03:00:45;;;;;;;8.13;6.25;;;;;;;18.80;55.21;98843.22;5011756;28;20034;-80
2023/07/17 03:03:10;;;;;;;9.35;5.90;;;;;;;18.71;54.65;98821.50;4994345;28;20029;-81
2023/07/17 03:05:36;;;;;;;8.30;5.35;;;;;;;18.78;55.08;98832.72;5010352;28;20036;-80
2023/07/17 03:08:02;;;;;;;9.13;5.68;;;;;;;18.94;54.88;98855.63;5011534;28;20025;-80
2023/07/17 03:10:29;;;;;;;9.90;5.55;;;;;;;18.57;55.64;98845.00;5010232;28;20778;-80
2023/07/17 03:12:54;;;;;;;12.50;6.82;;;;;;;18.60;55.16;98842.53;4994067;28;20053;-81
2023/07/17 03:15:19;;;;;;;9.88;6.10;;;;;;;18.77;55.40;98868.16;4993835;28;20095;-81
2023/07/17 03:17:45;;;;;;;10.52;6.28;;;;;;;18.47;56.08;98856.03;5010373;28;20501;-80
2023/07/17 03:20:11;;;;;;;9.18;6.50;;;;;;;18.08;57.18;98844.84;4997913;28;20080;-80
2023/07/17 03:22:37;;;;;;;9.80;6.70;;;;;;;17.87;59.01;98845.19;5014157;28;20054;-80
2023/07/17 03:25:05;;;;;;;12.07;7.05;;;;;;;17.73;59.24;98854.34;5014295;28;20053;-80
2023/07/17 03:27:30;;;;;;;11.82;6.53;;;;;;;18.01;56.77;98852.50;5011841;28;20560;-80
2023/07/17 03:29:56;;;;;;;12.77;7.80;;;;;;;17.86;58.55;98850.88;5011771;28;20026;-80
2023/07/17 03:32:21;;;;;;;8.35;6.43;;;;;;;17.78;57.90;98855.03;5017082;28;20049;-80
2023/07/17 03:34:47;;;;;;;8.80;6.78;;;;;;;17.21;61.59;98860.75;5006069;28;20033;-80
2023/07/17 03:37:12;;;;;;;6.70;5.80;;;;;;;17.19;60.31;98847.53;5046176;28;20029;-80
2023/07/17 03:39:38;;;;;;;11.55;7.45;;;;;;;17.35;60.15;98841.94;5050035;28;20104;-80
2023/07/17 03:42:10;;;;;;;12.60;7.53;;;;;;;17.12;61.07;98840.91;5033687;28;20535;-80
2023/07/17 03:44:35;;;;;;;9.98;6.38;;;;;;;16.96;61.53;98863.78;5033372;28;20033;-81
2023/07/17 03:47:01;;;;;;;10.40;6.63;;;;;;;17.23;59.99;98862.06;5016793;28;20033;-80
2023/07/17 03:49:26;;;;;;;9.07;6.80;;;;;;;16.91;62.89;98864.66;5050220;28;20057;-80
2023/07/17 03:51:52;;;;;;;9.02;6.63;;;;;;;16.63;62.98;98870.09;5033255;28;20162;-80
2023/07/17 03:54:17;;;;;;;10.55;6.75;;;;;;;16.14;65.84;98879.19;5050196;28;20037;-80
2023/07/17 03:56:42;;;;;;;9.77;7.35;;;;;;;15.99;66.04;98876.63;5034516;28;20025;-80
2023/07/17 03:59:08;;;;;;;9.13;6.85;;;;;;;15.96;64.84;98890.69;5033346;28;20553;-80
2023/07/17 04:01:33;;;;;;;16.48;7.68;;;;;;;15.85;64.96;98875.69;5033295;28;20033;-81
2023/07/17 04:03:58;;;;;;;12.23;6.53;;;;;;;16.30;63.66;98885.25;5049837;28;20033;-80
2023/07/17 04:06:24;;;;;;;13.10;7.50;;;;;;;16.37;64.69;98886.53;5050161;28;20086;-80
2023/07/17 04:08:49;;;;;;;15.35;7.57;;;;;;;16.42;64.35;98877.59;5034044;28;20040;-80
2023/07/17 04:11:15;;;;;;;12.27;6.70;;;;;;;16.79;62.99;98888.53;5033299;28;20457;-80
2023/07/17 04:13:41;;;;;;;7.72;6.07;;;;;;;17.12;61.27;98881.38;5034554;28;20026;-80
2023/07/17 04:16:07;;;;;;;9.02;6.20;;;;;;;17.10;61.09;98878.19;5049761;28;20052;-81
2023/07/17 04:18:33;;;;;;;14.75;7.57;;;;;;;16.87;64.46;98890.59;5032796;28;20108;-80
2023/07/17 04:20:58;;;;;;;11.88;6.45;;;;;;;17.14;61.73;98892.69;5032630;28;20037;-80
2023/07/17 04:23:23;;;;;;;7.30;5.78;;;;;;;17.48;60.40;98882.47;5032964;28;20076;-80
2023/07/17 04:25:49;;;;;;;11.52;7.38;;;;;;;17.48;63.34;98905.97;5049518;28;20033;-80
2023/07/17 04:28:15;;;;;;;11.90;7.22;;;;;;;17.41;60.64;98886.66;5032628;28;20037;-80
2023/07/17 04:30:40;;;;;;;12.15;6.10;;;;;;;17.46;61.20;98908.97;5032241;28;20026;-80
2023/07/17 04:33:06;;;;;;;10.18;6.32;;;;;;;17.51;61.13;98914.31;5033990;28;20533;-80
2023/07/17 04:35:38;;;;;;;12.70;7.65;;;;;;;17.19;63.94;98895.28;5048666;28;20484;-80
2023/07/17 04:38:03;;;;;;;10.13;6.55;;;;;;;17.84;59.81;98917.88;5032442;28;20028;-80
2023/07/17 04:40:29;;;;;;;7.47;6.25;;;;;;;17.90;59.28;98895.09;5015947;28;20029;-81
2023/07/17 04:42:55;;;;;;;10.73;6.18;;;;;;;18.54;57.72;98907.81;5032445;28;20504;-81
2023/07/17 04:45:20;;;;;;;12.60;6.40;;;;;;;18.62;58.13;98905.22;5016013;28;20037;-81
2023/07/17 04:47:45;;;;;;;9.60;5.95;;;;;;;18.76;57.16;98910.63;5032142;28;20029;-80
2023/07/17 04:50:11;;;;;;;8.38;5.40;;;;;;;18.91;56.72;98915.75;5032378;28;20560;-80
2023/07/17 04:52:36;;;;;;;7.03;5.72;;;;;;;19.30;55.38;98924.13;5015949;28;20561;-80
2023/07/17 04:55:02;;;;;;;10.25;6.70;;;;;;;19.21;56.70;98922.44;5048956;28;20105;-81
2023/07/17 04:57:27;;;;;;;8.45;6.47;;;;;;;19.32;55.04;98910.28;5032128;28;20040;-81
2023/07/17 04:59:53;;;;;;;7.57;5.55;;;;;;;19.45;55.07;98917.63;5048980;28;20667;-80
2023/07/17 05:02:18;;;;;;;11.65;6.32;;;;;;;19.63;54.45;98927.50;5032360;28;20508;-81
2023/07/17 05:04:44;;;;;;;9.18;6.13;;;;;;;19.63;54.76;98924.00;5048702;28;20036;-81
2023/07/17 05:07:09;;;;;;;9.23;6.05;;;;;;;19.66;54.54;98921.47;5048268;28;20159;-81
2023/07/17 05:09:34;;;;;;;12.30;6.80;;;;;;;19.80;54.13;98933.06;5032116;28;20465;-81
2023/07/17 05:12:00;;;;;;;10.00;6.72;;;;;;;19.84;54.12;98925.13;5031848;28;20029;-81
2023/07/17 05:14:25;;;;;;;11.68;6.40;;;;;;;19.94;54.05;98933.81;5033357;28;20083;-81
2023/07/17 05:16:50;;;;;;;10.32;6.95;;;;;;;19.88;54.20;98926.09;5032749;28;20040;-81
2023/07/17 05:19:16;;;;;;;11.10;6.53;;;;;;;19.95;54.60;98943.53;5048300;28;20027;-81
2023/07/17 05:21:41;;;;;;;11.05;6.45;;;;;;;19.91;54.81;98947.16;5032815;28;20061;-80
2023/07/17 05:24:07;;;;;;;8.93;6.47;;;;;;;20.05;54.01;98956.06;5031644;28;20036;-81
2023/07/17 05:26:32;;;;;;;8.70;5.55;;;;;;;20.10;53.75;98953.22;5031522;28;20029;-81
2023/07/17 05:28:57;;;;;;;8.80;6.50;;;;;;;20.00;54.29;98958.88;5031120;28;20064;-81
2023/07/17 05:31:23;;;;;;;11.63;6.55;;;;;;;20.15;53.98;98963.94;5031287;28;20107;-81
2023/07/17 05:33:48;;;;;;;10.32;5.97;;;;;;;20.00;54.17;98962.41;5031477;28;20107;-81
2023/07/17 05:36:13;;;;;;;13.75;6.53;;;;;;;19.98;54.02;98959.19;5031280;28;20021;-81
2023/07/17 05:38:39;;;;;;;15.60;6.60;;;;;;;20.04;54.94;98976.13;5032378;28;20029;-81
2023/07/17 05:41:04;;;;;;;10.10;6.50;;;;;;;19.87;54.63;98968.66;5030727;28;20092;-81
2023/07/17 05:43:31;;;;;;;12.70;6.82;;;;;;;19.93;55.48;98980.19;5031822;28;20077;-81
2023/07/17 05:45:56;;;;;;;9.75;6.20;;;;;;;20.17;54.27;98983.41;5032592;28;20029;-81
2023/07/17 05:48:22;;;;;;;12.73;6.32;;;;;;;20.20;53.99;98958.41;5030752;28;20029;-81
2023/07/17 05:50:47;;;;;;;11.70;6.50;;;;;;;20.18;54.71;98971.47;5031124;28;20489;-81
2023/07/17 05:53:13;;;;;;;8.85;6.00;;;;;;;20.46;53.53;98981.09;5047884;28;20037;-81
2023/07/17 05:55:38;;;;;;;13.77;6.68;;;;;;;20.56;53.39;98978.13;5031274;28;20025;-81
2023/07/17 05:58:03;;;;;;;8.63;6.13;;;;;;;20.45;53.73;98982.19;5031068;28;20037;-81
2023/07/17 06:00:29;;;;;;;11.25;6.05;;;;;;;20.43;53.73;98979.00;5032460;28;20369;-81
2023/07/17 06:02:54;;;;;;;11.57;5.95;;;;;;;20.52;53.62;98989.91;5031598;28;20075;-81
2023/07/17 06:05:20;;;;;;;9.43;5.68;;;;;;;20.42;54.26;98980.09;5047928;28;20029;-81
2023/07/17 06:07:45;;;;;;;18.15;6.80;;;;;;;20.43;54.46;98987.13;5032102;28;20036;-81
2023/07/17 06:10:12;;;;;;;10.82;7.03;;;;;;;20.28;56.60;98984.00;5047683;28;20029;-81
2023/07/17 06:12:38;;;;;;;8.50;6.13;;;;;;;20.45;55.98;98986.81;5030944;28;20071;-81
2023/07/17 06:15:05;;;;;;;9.48;6.28;;;;;;;20.53;53.94;98967.09;5030845;28;20035;-81
2023/07/17 06:17:31;;;;;;;8.38;6.20;;;;;;;20.50;56.63;98968.53;5030564;28;20048;-81
2023/07/17 06:19:56;;;;;;;7.90;6.07;;;;;;;20.68;53.80;98970.22;5032065;28;20072;-81
2023/07/17 06:22:22;;;;;;;8.88;5.85;;;;;;;20.64;54.20;98977.34;5047202;28;20029;-81
2023/07/17 06:24:47;;;;;;;10.38;5.95;;;;;;;20.79;53.92;98987.81;5030757;28;20036;-81
2023/07/17 06:27:13;;;;;;;11.73;6.03;;;;;;;20.64;54.41;98974.66;5030433;28;20029;-81
2023/07/17 06:29:38;;;;;;;9.40;6.38;;;;;;;20.79;55.49;98978.91;5030333;28;20196;-81
2023/07/17 06:32:04;;;;;;;9.13;5.65;;;;;;;20.84;54.29;98984.16;5031705;28;20124;-81
2023/07/17 06:34:29;;;;;;;8.10;6.10;;;;;;;20.88;54.19;98977.03;5030191;28;20120;-81
2023/07/17 06:36:55;;;;;;;12.60;6.47;;;;;;;20.79;56.41;98960.69;5013171;28;20032;-81
2023/07/17 06:39:20;;;;;;;8.38;5.93;;;;;;;20.91;54.75;98979.09;5030311;28;20103;-81
2023/07/17 06:41:45;;;;;;;12.23;6.03;;;;;;;21.04;53.68;98966.56;5030419;28;20397;-81
2023/07/17 06:44:11;;;;;;;13.13;5.85;;;;;;;21.04;53.72;98977.41;5031672;28;20026;-81
2023/07/17 06:46:36;;;;;;;7.25;5.63;;;;;;;21.09;53.93;98990.88;5029703;28;20033;-81
2023/07/17 06:49:01;;;;;;;10.80;6.25;;;;;;;21.05;53.98;98990.69;5030391;28;20119;-81
2023/07/17 06:51:27;;;;;;;9.60;6.05;;;;;;;21.01;54.65;99002.47;5030463;28;20029;-81
2023/07/17 06:53:53;;;;;;;10.90;6.10;;;;;;;21.05;54.56;98990.69;5030097;28;20034;-81
2023/07/17 06:56:18;;;;;;;7.90;6.28;;;;;;;21.09;54.30;98991.66;5030271;28;20129;-81
2023/07/17 06:58:44;;;;;;;8.70;5.53;;;;;;;21.18;54.16;98992.50;5029887;28;20124;-81
2023/07/17 07:01:11;;;;;;;12.27;6.25;;;;;;;21.15;54.32;98995.03;5046814;28;20076;-81
2023/07/17 07:03:37;;;;;;;7.35;4.97;;;;;;;21.18;54.31;98989.00;5046696;28;20108;-81
2023/07/17 07:06:04;;;;;;;11.05;5.55;;;;;;;21.20;54.25;98982.13;5031478;28;20108;-81
2023/07/17 07:08:30;;;;;;;8.75;5.65;;;;;;;21.22;55.75;98989.94;5046220;28;20045;-81
2023/07/17 07:11:00;;;;;;;9.65;5.68;;;;;;;21.35;54.01;98995.28;5029941;28;20029;-81
2023/07/17 07:13:26;;;;;;;9.25;5.68;;;;;;;21.41;53.99;98994.00;5030046;28;20025;-81
2023/07/17 07:15:52;;;;;;;9.27;5.22;;;;;;;21.19;56.58;98996.00;5013738;28;20060;-81
2023/07/17 07:18:19;;;;;;;6.85;5.60;;;;;;;21.28;54.38;99008.50;5029960;28;20545;-81
2023/07/17 07:20:46;;;;;;;15.23;5.78;;;;;;;21.22;54.72;99000.81;5029741;28;20053;-81
2023/07/17 07:23:11;;;;;;;10.95;6.00;;;;;;;21.18;56.60;99002.56;5046721;28;20057;-81
2023/07/17 07:25:37;;;;;;;11.50;5.75;;;;;;;21.06;57.24;98997.72;5046441;28;20056;-81
2023/07/17 07:28:03;;;;;;;10.60;5.97;;;;;;;21.22;55.31;99000.81;5029883;28;20025;-81
2023/07/17 07:30:29;;;;;;;10.00;5.30;;;;;;;21.38;55.39;99000.06;5029840;28;20033;-81
2023/07/17 07:32:54;;;;;;;8.18;4.97;;;;;;;21.50;54.59;98997.56;5029973;28;20439;-81
2023/07/17 07:35:20;;;;;;;9.25;5.15;;;;;;;21.57;54.22;98994.38;5030834;28;20116;-81
2023/07/17 07:37:46;;;;;;;7.05;4.60;;;;;;;21.60;54.62;98991.81;5029811;28;20603;-81
2023/07/17 07:40:12;;;;;;;9.32;4.88;;;;;;;21.62;54.06;98997.72;5013386;28;20037;-81
2023/07/17 07:42:41;;;;;;;8.07;4.60;;;;;;;21.69;53.82;98989.09;5046426;28;20029;-81
2023/07/17 07:45:07;;;;;;;8.18;4.78;;;;;;;21.62;54.41;98988.78;5031071;28;20022;-81
2023/07/17 07:47:32;;;;;;;8.27;4.90;;;;;;;21.70;53.40;98990.72;5029617;28;20120;-81
2023/07/17 07:49:59;;;;;;;6.80;4.22;;;;;;;21.73;54.39;98992.81;5046568;28;20022;-81
2023/07/17 07:52:25;;;;;;;8.27;4.35;;;;;;;21.86;53.89;98999.25;5029757;28;20036;-81
2023/07/17 07:54:50;;;;;;;9.77;4.53;;;;;;;21.84;53.24;98993.34;5031213;28;20022;-81
2023/07/17 07:57:16;;;;;;;6.97;4.90;;;;;;;22.01;53.41;99002.31;5029475;28;20040;-81
2023/07/17 07:59:41;;;;;;;5.82;4.30;;;;;;;22.00;54.34;99003.41;5029534;28;20037;-81
2023/07/17 08:02:07;;;;;;;5.70;4.20;;;;;;;21.99;53.01;99009.97;5030951;28;20160;-81
2023/07/17 08:04:33;;;;;;;8.57;4.72;;;;;;;22.10;53.09;99008.53;5029657;28;20038;-81
2023/07/17 08:06:58;;;;;;;8.93;4.78;;;;;;;22.12;52.60;99017.19;5049769;28;20033;-81
2023/07/17 08:09:23;;;;;;;9.13;4.82;;;;;;;22.17;52.63;99002.63;5050060;28;20120;-81
2023/07/17 08:11:49;;;;;;;10.32;4.43;;;;;;;22.23;52.70;99010.31;5049918;28;20112;-81
2023/07/17 08:14:14;;;;;;;6.95;4.38;;;;;;;22.36;52.02;99006.63;5034394;28;20116;-79
2023/07/17 08:16:40;;;;;;;5.93;4.47;;;;;;;22.28;52.29;99001.97;5034434;28;20068;-79
2023/07/17 08:19:05;;;;;;;8.05;4.40;;;;;;;22.32;52.29;99015.75;5034222;28;20100;-79
2023/07/17 08:21:31;;;;;;;7.00;4.22;;;;;;;22.19;52.75;99003.09;5032875;28;20044;-79
2023/07/17 08:23:56;;;;;;;11.57;5.13;;;;;;;22.51;51.85;99015.38;5049656;28;20041;-79
2023/07/17 08:26:21;;;;;;;7.65;4.53;;;;;;;22.28;52.58;99007.41;5033289;28;20041;-79
2023/07/17 08:28:47;;;;;;;6.63;4.25;;;;;;;22.54;52.17;99012.81;5016077;28;20033;-79
2023/07/17 08:31:12;;;;;;;6.03;4.30;;;;;;;22.57;51.86;99025.78;5034159;28;20033;-79
2023/07/17 08:33:38;;;;;;;7.05;4.75;;;;;;;22.55;51.64;99017.16;5032907;28;20035;-79
2023/07/17 08:36:03;;;;;;;8.10;4.65;;;;;;;22.46;52.44;98997.31;5049366;28;20030;-79
2023/07/17 08:38:29;;;;;;;8.82;5.22;;;;;;;22.56;53.06;99015.22;5032489;28;20032;-79
2023/07/17 08:40:54;;;;;;;9.18;5.00;;;;;;;22.67;52.76;98997.47;5033697;28;20181;-79
2023/07/17 08:43:24;;;;;;;8.90;4.68;;;;;;;22.82;51.42;99016.00;5032647;28;20025;-79
2023/07/17 08:45:51;;;;;;;6.60;4.65;;;;;;;22.78;51.13;99021.28;5032343;28;20021;-79
2023/07/17 08:48:18;;;;;;;10.13;4.70;;;;;;;22.77;51.30;99003.38;5032356;28;20064;-79
2023/07/17 08:50:43;;;;;;;9.85;4.28;;;;;;;22.92;50.90;99007.47;5033823;28;20037;-79
2023/07/17 08:53:10;;;;;;;6.35;4.90;;;;;;;22.96;52.84;99013.88;5032365;28;20485;-79
2023/07/17 08:55:37;;;;;;;8.98;5.13;;;;;;;22.81;51.29;98979.00;5033677;28;20026;-79
2023/07/17 08:58:03;;;;;;;14.20;5.32;;;;;;;23.11;51.70;99011.41;5031706;28;20036;-79
2023/07/17 09:00:32;;;;;;;12.38;5.28;;;;;;;23.12;50.96;98998.59;5033607;28;20040;-79
2023/07/17 09:02:57;;;;;;;8.48;5.28;;;;;;;23.24;50.68;99001.44;5033743;28;20488;-79
2023/07/17 09:05:23;;;;;;;7.65;4.80;;;;;;;23.11;51.81;98986.91;5015704;28;20025;-79
2023/07/17 09:07:49;;;;;;;8.90;5.07;;;;;;;23.33;50.36;98991.31;5033352;28;20496;-79
2023/07/17 09:10:19;;;;;;;7.47;4.07;;;;;;;23.48;52.49;98998.94;5033387;28;20377;-79
2023/07/17 09:12:55;;;;;;;9.25;4.95;;;;;;;23.60;50.24;99001.75;5032194;28;20034;-79
2023/07/17 09:15:21;;;;;;;6.95;4.90;;;;;;;23.71;49.81;98989.34;5032033;28;20044;-80
2023/07/17 09:17:46;;;;;;;7.80;4.88;;;;;;;23.71;51.36;98989.34;5033150;28;20056;-79
2023/07/17 09:20:13;;;;;;;10.00;5.47;;;;;;;23.83;51.16;98996.78;5031930;28;20029;-79
2023/07/17 09:22:39;;;;;;;8.55;4.47;;;;;;;23.88;49.38;98991.16;5031707;28;20040;-79
2023/07/17 09:25:05;;;;;;;6.30;4.18;;;;;;;23.97;49.57;98993.81;5031747;28;20037;-80
2023/07/17 09:27:42;;;;;;;8.32;4.90;;;;;;;24.00;49.25;98976.78;5048082;28;20041;-79
2023/07/17 09:30:08;;;;;;;7.15;4.55;;;;;;;24.02;48.24;98997.16;5031978;28;20024;-79
2023/07/17 09:32:34;;;;;;;6.30;4.03;;;;;;;24.06;48.56;98989.91;5031550;28;20029;-79
2023/07/17 09:35:04;;;;;;;6.72;3.92;;;;;;;24.08;48.53;98995.03;5031373;28;20032;-79
2023/07/17 09:37:31;;;;;;;9.45;4.45;;;;;;;24.37;47.88;99000.41;5031011;28;20537;-79
2023/07/17 09:39:58;;;;;;;6.47;4.18;;;;;;;24.51;47.74;98990.00;5032453;28;20026;-80
2023/07/17 09:42:24;;;;;;;6.50;3.70;;;;;;;24.48;47.83;98990.69;5048105;28;20029;-80
2023/07/17 09:44:51;;;;;;;6.10;3.85;;;;;;;24.40;48.15;99000.53;5031452;28;20060;-80
2023/07/17 09:47:18;;;;;;;7.38;3.80;;;;;;;24.46;47.35;99007.38;5031268;28;20478;-80
2023/07/17 09:49:44;;;;;;;5.18;3.97;;;;;;;24.35;47.27;98998.00;5031468;28;20018;-80
2023/07/17 09:52:09;;;;;;;6.32;4.18;;;;;;;24.38;46.95;98996.53;5031153;28;20405;-79
2023/07/17 09:54:37;;;;;;;6.68;3.95;;;;;;;24.47;46.04;98994.53;5047794;28;20044;-79
2023/07/17 09:57:04;;;;;;;6.13;3.42;;;;;;;24.54;45.87;98975.69;5031010;28;20057;-80
2023/07/17 09:59:35;;;;;;;5.47;3.30;;;;;;;24.76;46.57;98996.34;5031083;28;20029;-79
2023/07/17 10:02:02;;;;;;;6.47;3.13;;;;;;;24.75;45.38;98981.91;5014698;28;20108;-79
2023/07/17 10:04:44;;;;;;;5.05;3.60;;;;;;;24.79;45.93;98990.22;5014645;28;20040;-80
2023/07/17 10:07:13;;;;;;;5.43;3.13;;;;;;;24.79;46.24;99001.94;5032087;28;20029;-79
2023/07/17 10:09:42;;;;;;;7.85;4.05;;;;;;;24.82;45.98;99016.84;5032106;28;20028;-80
2023/07/17 10:12:08;;;;;;;5.22;3.45;;;;;;;24.59;46.18;99003.53;5030616;28;20401;-79
2023/07/17 10:14:34;;;;;;;5.43;3.35;;;;;;;24.70;46.25;99024.97;5032164;28;20022;-80
2023/07/17 10:16:59;;;;;;;4.32;3.28;;;;;;;24.27;47.57;99031.63;5047117;28;20079;-79
2023/07/17 10:19:43;;;;;;;6.82;3.92;;;;;;;24.12;48.17;99031.41;5030574;28;20033;-80
2023/07/17 10:22:13;;;;;;;6.53;3.17;;;;;;;24.29;47.04;99023.09;5030796;28;20060;-79
2023/07/17 10:24:40;;;;;;;6.85;3.83;;;;;;;24.17;47.19;99015.66;5047364;28;20034;-80
2023/07/17 10:27:06;;;;;;;4.82;3.47;;;;;;;24.15;47.80;99026.13;5031640;28;20079;-79
2023/07/17 10:29:41;;;;;;;9.27;3.45;;;;;;;23.95;48.36;99006.97;5030128;28;20025;-80
2023/07/17 10:32:12;;;;;;;4.60;3.15;;;;;;;24.08;48.26;99000.50;5047533;28;20036;-80
2023/07/17 10:34:52;;;;;;;3.70;3.05;;;;;;;24.27;47.68;99014.44;5030478;28;20029;-80
2023/07/17 10:37:38;;;;;;;6.63;3.67;;;;;;;24.48;47.71;99017.97;5030603;28;20032;-80
2023/07/17 10:40:24;;;;;;;6.82;2.92;;;;;;;24.58;46.87;99007.44;5029979;28;20033;-80
2023/07/17 10:42:49;;;;;;;4.88;3.38;;;;;;;24.48;47.25;99023.44;5030316;28;20057;-80
2023/07/17 10:45:16;;;;;;;6.03;3.38;;;;;;;24.25;46.94;99003.88;5031632;28;20053;-80
2023/07/17 10:47:41;;;;;;;5.93;3.40;;;;;;;24.41;46.31;99025.88;5030104;28;20461;-79
2023/07/17 10:50:07;;;;;;;6.30;2.80;;;;;;;24.34;46.48;99029.16;5031646;28;20079;-79
2023/07/17 10:52:34;;;;;;;9.00;3.33;;;;;;;24.09;46.79;99018.47;5030118;28;20021;-79
2023/07/17 10:55:06;;;;;;;7.07;3.55;;;;;;;24.10;46.26;99003.69;5030508;28;20044;-79
2023/07/17 10:57:32;;;;;;;3.95;3.33;;;;;;;24.16;45.85;99015.97;5029924;28;20385;-79
2023/07/17 10:59:58;;;;;;;5.07;3.17;;;;;;;23.80;47.08;99002.91;5031630;28;20029;-79
2023/07/17 11:02:26;;;;;;;6.80;3.05;;;;;;;24.01;46.58;98998.25;5030185;28;20033;-79
2023/07/17 11:04:57;;;;;;;5.45;2.83;;;;;;;24.12;46.39;98996.75;5046696;28;20029;-79
2023/07/17 11:07:23;;;;;;;6.03;2.72;;;;;;;24.33;45.98;99002.22;5029952;28;20074;-79
2023/07/17 11:09:48;;;;;;;5.70;2.70;;;;;;;24.49;46.06;99009.44;5030049;28;20033;-79
2023/07/17 11:12:14;;;;;;;5.13;3.17;;;;;;;24.44;46.37;99003.41;5031693;28;20100;-79
2023/07/17 11:14:40;;;;;;;3.17;2.70;;;;;;;24.59;45.83;98998.09;5030004;28;20025;-80
2023/07/17 11:17:05;;;;;;;7.35;2.72;;;;;;;24.68;46.13;99006.22;5029915;28;20121;-80
2023/07/17 11:19:31;;;;;;;2.92;2.30;;;;;;;24.64;46.16;99008.00;5029949;28;20065;-80
2023/07/17 11:21:56;;;;;;;4.43;2.75;;;;;;;24.65;46.24;99012.34;5013515;28;20022;-79
2023/07/17 11:24:23;;;;;;;3.78;2.58;;;;;;;24.81;45.72;99010.59;5046512;28;20500;-80
2023/07/17 11:26:48;;;;;;;3.88;2.70;;;;;;;24.95;47.20;99000.16;5013564;28;20056;-80